sensor_id;sensor_type;location;lat;lon;timestamp;pressure;altitude;pressure_sealevel;temperature;humidity
31121;BME280;17770;45.966;13.632;2023-05-20T00:01:05;100628.06;;;22.20;52.84
31121;BME280;17770;45.966;13.632;2023-05-20T00:03:31;100630.81;;;22.18;52.71
31121;BME280;17770;45.966;13.632;2023-05-20T00:05:57;100625.66;;;22.17;52.81
31121;BME280;17770;45.966;13.632;2023-05-20T00:08:23;100637.03;;;22.17;52.51
31121;BME280;17770;45.966;13.632;2023-05-20T00:10:49;100638.91;;;22.15;52.46
31121;BME280;17770;45.966;13.632;2023-05-20T00:13:15;100638.09;;;22.15;52.47
31121;BME280;17770;45.966;13.632;2023-05-20T00:15:41;100639.75;;;22.16;52.39
31121;BME280;17770;45.966;13.632;2023-05-20T00:18:07;100647.66;;;22.16;52.51
31121;BME280;17770;45.966;13.632;2023-05-20T00:20:33;100638.00;;;22.16;52.50
31121;BME280;17770;45.966;13.632;2023-05-20T00:22:59;100637.13;;;22.16;52.29
31121;BME280;17770;45.966;13.632;2023-05-20T00:25:25;100637.25;;;22.14;52.34
31121;BME280;17770;45.966;13.632;2023-05-20T00:27:50;100643.34;;;22.15;52.35
31121;BME280;17770;45.966;13.632;2023-05-20T00:30:16;100631.03;;;22.15;52.44
31121;BME280;17770;45.966;13.632;2023-05-20T00:32:42;100631.25;;;22.12;52.51
31121;BME280;17770;45.966;13.632;2023-05-20T00:35:09;100641.78;;;22.12;52.31
31121;BME280;17770;45.966;13.632;2023-05-20T00:37:36;100640.00;;;22.13;52.37
31121;BME280;17770;45.966;13.632;2023-05-20T00:40:02;100633.03;;;22.12;52.70
31121;BME280;17770;45.966;13.632;2023-05-20T00:42:28;100626.97;;;22.11;52.50
31121;BME280;17770;45.966;13.632;2023-05-20T00:44:54;100631.50;;;22.09;52.39
31121;BME280;17770;45.966;13.632;2023-05-20T00:47:22;100627.91;;;22.10;52.44
31121;BME280;17770;45.966;13.632;2023-05-20T00:49:50;100632.34;;;22.10;52.42
31121;BME280;17770;45.966;13.632;2023-05-20T00:52:17;100624.53;;;22.08;52.62
31121;BME280;17770;45.966;13.632;2023-05-20T00:54:43;100622.75;;;22.09;52.70
31121;BME280;17770;45.966;13.632;2023-05-20T00:57:10;100612.25;;;22.09;52.71
31121;BME280;17770;45.966;13.632;2023-05-20T00:59:36;100607.97;;;22.08;52.41
31121;BME280;17770;45.966;13.632;2023-05-20T01:02:03;100608.78;;;22.08;52.47
31121;BME280;17770;45.966;13.632;2023-05-20T01:04:29;100614.16;;;22.07;52.73
31121;BME280;17770;45.966;13.632;2023-05-20T01:06:55;100602.94;;;22.05;52.50
31121;BME280;17770;45.966;13.632;2023-05-20T01:09:22;100599.56;;;22.03;52.56
31121;BME280;17770;45.966;13.632;2023-05-20T01:11:55;100596.84;;;22.04;52.48
31121;BME280;17770;45.966;13.632;2023-05-20T01:14:24;100602.09;;;22.04;52.56
31121;BME280;17770;45.966;13.632;2023-05-20T01:16:52;100593.34;;;22.04;52.52
31121;BME280;17770;45.966;13.632;2023-05-20T01:19:21;100591.59;;;22.04;52.57
31121;BME280;17770;45.966;13.632;2023-05-20T01:21:48;100593.47;;;22.02;52.55
31121;BME280;17770;45.966;13.632;2023-05-20T01:24:16;100595.25;;;22.02;52.69
31121;BME280;17770;45.966;13.632;2023-05-20T01:26:41;100585.59;;;22.02;52.45
31121;BME280;17770;45.966;13.632;2023-05-20T01:29:07;100576.97;;;22.00;52.49
31121;BME280;17770;45.966;13.632;2023-05-20T01:31:33;100581.41;;;22.00;52.72
31121;BME280;17770;45.966;13.632;2023-05-20T01:34:03;100571.84;;;21.98;52.75
31121;BME280;17770;45.966;13.632;2023-05-20T01:36:30;100564.81;;;21.99;52.76
31121;BME280;17770;45.966;13.632;2023-05-20T01:38:56;100571.03;;;21.98;52.71
31121;BME280;17770;45.966;13.632;2023-05-20T01:41:23;100564.06;;;21.97;52.65
31121;BME280;17770;45.966;13.632;2023-05-20T01:43:49;100561.44;;;21.97;52.61
31121;BME280;17770;45.966;13.632;2023-05-20T01:46:15;100557.91;;;21.98;52.57
31121;BME280;17770;45.966;13.632;2023-05-20T01:48:41;100553.44;;;21.98;52.65
31121;BME280;17770;45.966;13.632;2023-05-20T01:51:07;100548.31;;;21.97;52.55
31121;BME280;17770;45.966;13.632;2023-05-20T01:53:33;100542.22;;;21.96;52.49
31121;BME280;17770;45.966;13.632;2023-05-20T01:55:59;100541.28;;;21.98;52.45
31121;BME280;17770;45.966;13.632;2023-05-20T01:58:25;100540.44;;;21.97;52.50
31121;BME280;17770;45.966;13.632;2023-05-20T02:00:51;100533.53;;;21.96;52.55
31121;BME280;17770;45.966;13.632;2023-05-20T02:03:17;100535.41;;;21.94;52.62
31121;BME280;17770;45.966;13.632;2023-05-20T02:05:43;100529.19;;;21.95;52.45
31121;BME280;17770;45.966;13.632;2023-05-20T02:08:09;100531.00;;;21.94;52.60
31121;BME280;17770;45.966;13.632;2023-05-20T02:10:34;100525.88;;;21.93;52.46
31121;BME280;17770;45.966;13.632;2023-05-20T02:13:00;100518.81;;;21.93;52.47
31121;BME280;17770;45.966;13.632;2023-05-20T02:15:26;100513.66;;;21.92;52.52
31121;BME280;17770;45.966;13.632;2023-05-20T02:17:52;100512.75;;;21.93;52.56
31121;BME280;17770;45.966;13.632;2023-05-20T02:20:18;100511.16;;;21.90;52.69
31121;BME280;17770;45.966;13.632;2023-05-20T02:22:44;100506.75;;;21.91;52.47
31121;BME280;17770;45.966;13.632;2023-05-20T02:25:10;100509.38;;;21.91;52.61
31121;BME280;17770;45.966;13.632;2023-05-20T02:27:36;100501.50;;;21.91;52.49
31121;BME280;17770;45.966;13.632;2023-05-20T02:30:02;100500.66;;;21.90;52.45
31121;BME280;17770;45.966;13.632;2023-05-20T02:32:28;100507.69;;;21.90;52.52
31121;BME280;17770;45.966;13.632;2023-05-20T02:34:54;100494.66;;;21.88;52.58
31121;BME280;17770;45.966;13.632;2023-05-20T02:37:20;100497.19;;;21.90;52.59
31121;BME280;17770;45.966;13.632;2023-05-20T02:39:46;100493.75;;;21.89;52.60
31121;BME280;17770;45.966;13.632;2023-05-20T02:42:13;100497.28;;;21.88;52.34
31121;BME280;17770;45.966;13.632;2023-05-20T02:44:39;100507.81;;;21.88;52.46
31121;BME280;17770;45.966;13.632;2023-05-20T02:47:05;100492.03;;;21.88;52.67
31121;BME280;17770;45.966;13.632;2023-05-20T02:49:31;100496.59;;;21.86;52.41
31121;BME280;17770;45.966;13.632;2023-05-20T02:51:57;100501.84;;;21.86;52.42
31121;BME280;17770;45.966;13.632;2023-05-20T02:54:23;100494.78;;;21.87;52.45
31121;BME280;17770;45.966;13.632;2023-05-20T02:56:49;100498.25;;;21.87;52.33
31121;BME280;17770;45.966;13.632;2023-05-20T02:59:15;100492.16;;;21.87;52.38
31121;BME280;17770;45.966;13.632;2023-05-20T03:01:41;100490.50;;;21.86;52.37
31121;BME280;17770;45.966;13.632;2023-05-20T03:04:07;100489.75;;;21.84;52.51
31121;BME280;17770;45.966;13.632;2023-05-20T03:06:33;100493.25;;;21.84;52.38
31121;BME280;17770;45.966;13.632;2023-05-20T03:08:59;100487.88;;;21.86;52.21
31121;BME280;17770;45.966;13.632;2023-05-20T03:11:26;100477.59;;;21.83;52.42
31121;BME280;17770;45.966;13.632;2023-05-20T03:13:52;100482.75;;;21.84;52.51
31121;BME280;17770;45.966;13.632;2023-05-20T03:16:18;100474.97;;;21.83;52.49
31121;BME280;17770;45.966;13.632;2023-05-20T03:18:44;100482.00;;;21.82;52.28
31121;BME280;17770;45.966;13.632;2023-05-20T03:21:11;100472.47;;;21.81;52.33
31121;BME280;17770;45.966;13.632;2023-05-20T03:23:37;100472.47;;;21.81;52.25
31121;BME280;17770;45.966;13.632;2023-05-20T03:26:04;100474.97;;;21.83;52.61
31121;BME280;17770;45.966;13.632;2023-05-20T03:28:32;100477.72;;;21.81;52.70
31121;BME280;17770;45.966;13.632;2023-05-20T03:30:58;100479.50;;;21.81;52.50
31121;BME280;17770;45.966;13.632;2023-05-20T03:33:24;100491.78;;;21.80;52.59
31121;BME280;17770;45.966;13.632;2023-05-20T03:35:51;100486.53;;;21.80;52.53
31121;BME280;17770;45.966;13.632;2023-05-20T03:38:17;100487.50;;;21.79;52.60
31121;BME280;17770;45.966;13.632;2023-05-20T03:40:43;100479.59;;;21.79;52.52
31121;BME280;17770;45.966;13.632;2023-05-20T03:43:09;100490.00;;;21.81;52.32
31121;BME280;17770;45.966;13.632;2023-05-20T03:45:35;100488.31;;;21.80;52.70
31121;BME280;17770;45.966;13.632;2023-05-20T03:48:04;100497.88;;;21.81;52.39
31121;BME280;17770;45.966;13.632;2023-05-20T03:50:32;100490.94;;;21.80;52.62
31121;BME280;17770;45.966;13.632;2023-05-20T03:52:59;100489.16;;;21.80;52.54
31121;BME280;17770;45.966;13.632;2023-05-20T03:55:25;100482.13;;;21.81;52.28
31121;BME280;17770;45.966;13.632;2023-05-20T03:57:53;100487.50;;;21.79;52.41
31121;BME280;17770;45.966;13.632;2023-05-20T04:00:19;100482.34;;;21.78;52.36
31121;BME280;17770;45.966;13.632;2023-05-20T04:02:47;100491.03;;;21.78;52.27
31121;BME280;17770;45.966;13.632;2023-05-20T04:05:16;100491.88;;;21.79;52.53
31121;BME280;17770;45.966;13.632;2023-05-20T04:07:42;100501.53;;;21.78;52.41
31121;BME280;17770;45.966;13.632;2023-05-20T04:10:08;100493.66;;;21.78;52.22
31121;BME280;17770;45.966;13.632;2023-05-20T04:12:34;100498.91;;;21.78;52.56
31121;BME280;17770;45.966;13.632;2023-05-20T04:15:02;100503.34;;;21.78;52.56
31121;BME280;17770;45.966;13.632;2023-05-20T04:17:33;100497.25;;;21.77;52.37
31121;BME280;17770;45.966;13.632;2023-05-20T04:19:59;100491.16;;;21.77;52.58
31121;BME280;17770;45.966;13.632;2023-05-20T04:22:25;100503.34;;;21.78;52.35
31121;BME280;17770;45.966;13.632;2023-05-20T04:24:51;100501.66;;;21.77;52.47
31121;BME280;17770;45.966;13.632;2023-05-20T04:27:17;100505.13;;;21.77;52.49
31121;BME280;17770;45.966;13.632;2023-05-20T04:29:43;100499.88;;;21.77;52.71
31121;BME280;17770;45.966;13.632;2023-05-20T04:32:13;100491.25;;;21.75;52.59
31121;BME280;17770;45.966;13.632;2023-05-20T04:34:39;100498.22;;;21.76;52.54
31121;BME280;17770;45.966;13.632;2023-05-20T04:37:05;100502.59;;;21.76;52.55
31121;BME280;17770;45.966;13.632;2023-05-20T04:39:34;100506.09;;;21.76;52.53
31121;BME280;17770;45.966;13.632;2023-05-20T04:42:01;100504.38;;;21.75;52.53
31121;BME280;17770;45.966;13.632;2023-05-20T04:44:28;100516.59;;;21.76;52.55
31121;BME280;17770;45.966;13.632;2023-05-20T04:46:55;100512.25;;;21.75;52.44
31121;BME280;17770;45.966;13.632;2023-05-20T04:49:22;100507.84;;;21.76;52.33
31121;BME280;17770;45.966;13.632;2023-05-20T04:51:53;100506.19;;;21.75;52.66
31121;BME280;17770;45.966;13.632;2023-05-20T04:54:20;100520.13;;;21.75;52.53
31121;BME280;17770;45.966;13.632;2023-05-20T04:56:46;100506.25;;;21.73;52.45
31121;BME280;17770;45.966;13.632;2023-05-20T04:59:12;100506.19;;;21.75;52.29
31121;BME280;17770;45.966;13.632;2023-05-20T05:01:39;100502.72;;;21.74;52.45
31121;BME280;17770;45.966;13.632;2023-05-20T05:04:05;100500.94;;;21.75;52.30
31121;BME280;17770;45.966;13.632;2023-05-20T05:06:31;100499.22;;;21.74;52.60
31121;BME280;17770;45.966;13.632;2023-05-20T05:08:58;100492.22;;;21.74;52.57
31121;BME280;17770;45.966;13.632;2023-05-20T05:11:25;100488.72;;;21.74;52.29
31121;BME280;17770;45.966;13.632;2023-05-20T05:13:51;100488.72;;;21.74;52.37
31121;BME280;17770;45.966;13.632;2023-05-20T05:16:19;100496.59;;;21.74;52.50
31121;BME280;17770;45.966;13.632;2023-05-20T05:18:45;100497.56;;;21.73;52.50
31121;BME280;17770;45.966;13.632;2023-05-20T05:21:10;100495.06;;;21.71;52.29
31121;BME280;17770;45.966;13.632;2023-05-20T05:23:36;100498.50;;;21.72;52.30
31121;BME280;17770;45.966;13.632;2023-05-20T05:26:02;100502.94;;;21.71;52.52
31121;BME280;17770;45.966;13.632;2023-05-20T05:28:28;100502.94;;;21.71;52.37
31121;BME280;17770;45.966;13.632;2023-05-20T05:30:54;100498.63;;;21.70;52.45
31121;BME280;17770;45.966;13.632;2023-05-20T05:33:24;100510.94;;;21.70;52.51
31121;BME280;17770;45.966;13.632;2023-05-20T05:35:51;100507.34;;;21.71;52.51
31121;BME280;17770;45.966;13.632;2023-05-20T05:38:17;100500.44;;;21.70;52.41
31121;BME280;17770;45.966;13.632;2023-05-20T05:40:43;100503.97;;;21.69;52.21
31121;BME280;17770;45.966;13.632;2023-05-20T05:43:09;100499.47;;;21.71;52.51
31121;BME280;17770;45.966;13.632;2023-05-20T05:45:35;100501.25;;;21.70;52.30
31121;BME280;17770;45.966;13.632;2023-05-20T05:48:01;100499.59;;;21.69;52.43
31121;BME280;17770;45.966;13.632;2023-05-20T05:50:27;100502.19;;;21.69;52.51
31121;BME280;17770;45.966;13.632;2023-05-20T05:52:53;100510.94;;;21.70;52.47
31121;BME280;17770;45.966;13.632;2023-05-20T05:55:19;100513.56;;;21.70;52.44
31121;BME280;17770;45.966;13.632;2023-05-20T05:57:46;100509.13;;;21.70;52.25
31121;BME280;17770;45.966;13.632;2023-05-20T06:00:14;100510.09;;;21.69;52.34
31121;BME280;17770;45.966;13.632;2023-05-20T06:02:46;100512.72;;;21.69;52.60
31121;BME280;17770;45.966;13.632;2023-05-20T06:05:20;100515.22;;;21.71;52.35
31121;BME280;17770;45.966;13.632;2023-05-20T06:07:46;100510.19;;;21.68;52.32
31121;BME280;17770;45.966;13.632;2023-05-20T06:10:12;100510.19;;;21.68;52.42
31121;BME280;17770;45.966;13.632;2023-05-20T06:12:38;100511.97;;;21.67;52.23
31121;BME280;17770;45.966;13.632;2023-05-20T06:15:04;100507.56;;;21.68;52.46
31121;BME280;17770;45.966;13.632;2023-05-20T06:17:31;100507.56;;;21.68;52.37
31121;BME280;17770;45.966;13.632;2023-05-20T06:19:57;100511.00;;;21.68;52.47
31121;BME280;17770;45.966;13.632;2023-05-20T06:22:24;100508.50;;;21.67;52.83
31121;BME280;17770;45.966;13.632;2023-05-20T06:24:50;100505.06;;;21.66;52.48
31121;BME280;17770;45.966;13.632;2023-05-20T06:27:16;100498.97;;;21.66;52.44
31121;BME280;17770;45.966;13.632;2023-05-20T06:29:43;100506.84;;;21.66;52.37
31121;BME280;17770;45.966;13.632;2023-05-20T06:32:09;100508.50;;;21.67;52.35
31121;BME280;17770;45.966;13.632;2023-05-20T06:34:35;100507.69;;;21.66;52.20
31121;BME280;17770;45.966;13.632;2023-05-20T06:37:01;100508.50;;;21.67;52.48
31121;BME280;17770;45.966;13.632;2023-05-20T06:39:27;100500.63;;;21.67;52.25
31121;BME280;17770;45.966;13.632;2023-05-20T06:41:53;100506.84;;;21.66;52.60
31121;BME280;17770;45.966;13.632;2023-05-20T06:44:27;100491.09;;;21.66;52.80
31121;BME280;17770;45.966;13.632;2023-05-20T06:47:00;100493.72;;;21.66;52.81
31121;BME280;17770;45.966;13.632;2023-05-20T06:49:31;100501.47;;;21.67;52.46
31121;BME280;17770;45.966;13.632;2023-05-20T06:51:56;100477.97;;;21.66;52.76
31121;BME280;17770;45.966;13.632;2023-05-20T06:54:23;100485.84;;;21.66;53.13
31121;BME280;17770;45.966;13.632;2023-05-20T06:56:49;100477.13;;;21.65;52.86
31121;BME280;17770;45.966;13.632;2023-05-20T06:59:15;100486.78;;;21.65;52.80
31121;BME280;17770;45.966;13.632;2023-05-20T07:01:42;100485.00;;;21.65;52.68
31121;BME280;17770;45.966;13.632;2023-05-20T07:04:08;100485.09;;;21.64;52.50
31121;BME280;17770;45.966;13.632;2023-05-20T07:06:34;100489.41;;;21.65;52.97
31121;BME280;17770;45.966;13.632;2023-05-20T07:09:00;100477.97;;;21.66;52.39
31121;BME280;17770;45.966;13.632;2023-05-20T07:11:26;100484.06;;;21.66;53.19
31121;BME280;17770;45.966;13.632;2023-05-20T07:13:51;100483.22;;;21.66;53.07
31121;BME280;17770;45.966;13.632;2023-05-20T07:16:18;100487.63;;;21.65;52.68
31121;BME280;17770;45.966;13.632;2023-05-20T07:18:48;100478.06;;;21.64;52.53
31121;BME280;17770;45.966;13.632;2023-05-20T07:21:14;100467.56;;;21.64;52.82
31121;BME280;17770;45.966;13.632;2023-05-20T07:23:59;100464.09;;;21.64;52.67
31121;BME280;17770;45.966;13.632;2023-05-20T07:26:25;100458.72;;;21.65;52.57
31121;BME280;17770;45.966;13.632;2023-05-20T07:28:51;100460.53;;;21.65;52.66
31121;BME280;17770;45.966;13.632;2023-05-20T07:31:17;100469.22;;;21.65;52.96
31121;BME280;17770;45.966;13.632;2023-05-20T07:33:44;100447.31;;;21.66;52.95
31121;BME280;17770;45.966;13.632;2023-05-20T07:36:11;100475.22;;;21.67;53.13
31121;BME280;17770;45.966;13.632;2023-05-20T07:38:39;100466.50;;;21.67;52.75
31121;BME280;17770;45.966;13.632;2023-05-20T07:41:07;100459.47;;;21.67;52.94
31121;BME280;17770;45.966;13.632;2023-05-20T07:43:33;100447.19;;;21.68;52.85
31121;BME280;17770;45.966;13.632;2023-05-20T07:46:01;100456.72;;;21.69;52.92
31121;BME280;17770;45.966;13.632;2023-05-20T07:48:27;100469.97;;;21.67;52.32
31121;BME280;17770;45.966;13.632;2023-05-20T07:50:53;100463.56;;;21.71;52.51
31121;BME280;17770;45.966;13.632;2023-05-20T07:53:22;100461.63;;;21.73;52.40
31121;BME280;17770;45.966;13.632;2023-05-20T07:55:48;100451.13;;;21.73;52.71
31121;BME280;17770;45.966;13.632;2023-05-20T07:58:14;100430.13;;;21.73;52.89
31121;BME280;17770;45.966;13.632;2023-05-20T08:00:40;100447.69;;;21.73;52.59
31121;BME280;17770;45.966;13.632;2023-05-20T08:03:07;100440.63;;;21.73;52.79
31121;BME280;17770;45.966;13.632;2023-05-20T08:05:45;100437.06;;;21.74;52.67
31121;BME280;17770;45.966;13.632;2023-05-20T08:08:11;100447.38;;;21.77;52.87
31121;BME280;17770;45.966;13.632;2023-05-20T08:10:49;100446.53;;;21.77;53.06
31121;BME280;17770;45.966;13.632;2023-05-20T08:13:15;100419.44;;;21.76;52.92
31121;BME280;17770;45.966;13.632;2023-05-20T08:15:41;100437.81;;;21.76;52.58
31121;BME280;17770;45.966;13.632;2023-05-20T08:18:07;100436.75;;;21.79;52.81
31121;BME280;17770;45.966;13.632;2023-05-20T08:20:33;100443.78;;;21.78;52.52
31121;BME280;17770;45.966;13.632;2023-05-20T08:22:59;100439.38;;;21.79;52.47
31121;BME280;17770;45.966;13.632;2023-05-20T08:25:25;100441.88;;;21.80;52.53
31121;BME280;17770;45.966;13.632;2023-05-20T08:27:51;100412.88;;;21.82;52.34
31121;BME280;17770;45.966;13.632;2023-05-20T08:30:17;100425.91;;;21.83;52.31
31121;BME280;17770;45.966;13.632;2023-05-20T08:32:43;100433.66;;;21.85;52.52
31121;BME280;17770;45.966;13.632;2023-05-20T08:35:10;100417.09;;;21.84;52.36
31121;BME280;17770;45.966;13.632;2023-05-20T08:37:35;100416.13;;;21.85;51.80
31121;BME280;17770;45.966;13.632;2023-05-20T08:40:02;100415.06;;;21.88;52.56
31121;BME280;17770;45.966;13.632;2023-05-20T08:42:29;100421.97;;;21.89;52.50
31121;BME280;17770;45.966;13.632;2023-05-20T08:44:56;100427.13;;;21.90;52.36
31121;BME280;17770;45.966;13.632;2023-05-20T08:47:23;100414.00;;;21.90;52.67
31121;BME280;17770;45.966;13.632;2023-05-20T08:49:50;100415.56;;;21.93;52.37
31121;BME280;17770;45.966;13.632;2023-05-20T08:52:17;100418.19;;;21.93;52.54
31121;BME280;17770;45.966;13.632;2023-05-20T08:54:46;100419.72;;;21.95;52.29
31121;BME280;17770;45.966;13.632;2023-05-20T08:57:12;100424.13;;;21.95;52.53
31121;BME280;17770;45.966;13.632;2023-05-20T08:59:44;100429.28;;;21.96;52.27
31121;BME280;17770;45.966;13.632;2023-05-20T09:02:11;100430.00;;;21.98;52.27
31121;BME280;17770;45.966;13.632;2023-05-20T09:04:37;100418.69;;;21.98;52.38
31121;BME280;17770;45.966;13.632;2023-05-20T09:07:03;100426.44;;;22.00;52.50
31121;BME280;17770;45.966;13.632;2023-05-20T09:09:30;100435.00;;;22.02;52.22
31121;BME280;17770;45.966;13.632;2023-05-20T09:11:58;100447.22;;;22.03;52.52
31121;BME280;17770;45.966;13.632;2023-05-20T09:14:24;100452.34;;;22.04;52.57
31121;BME280;17770;45.966;13.632;2023-05-20T09:16:51;100442.69;;;22.05;52.16
31121;BME280;17770;45.966;13.632;2023-05-20T09:19:19;100460.13;;;22.06;52.28
31121;BME280;17770;45.966;13.632;2023-05-20T09:21:45;100446.88;;;22.07;52.23
31121;BME280;17770;45.966;13.632;2023-05-20T09:24:12;100454.75;;;22.07;52.46
31121;BME280;17770;45.966;13.632;2023-05-20T09:26:37;100467.75;;;22.09;52.40
31121;BME280;17770;45.966;13.632;2023-05-20T09:29:03;100468.59;;;22.09;52.45
31121;BME280;17770;45.966;13.632;2023-05-20T09:31:30;100465.75;;;22.12;52.38
31121;BME280;17770;45.966;13.632;2023-05-20T09:33:57;100459.53;;;22.13;52.63
31121;BME280;17770;45.966;13.632;2023-05-20T09:36:24;100477.91;;;22.13;52.47
31121;BME280;17770;45.966;13.632;2023-05-20T09:38:53;100469.09;;;22.14;52.36
31121;BME280;17770;45.966;13.632;2023-05-20T09:41:22;100460.13;;;22.17;52.51
31121;BME280;17770;45.966;13.632;2023-05-20T09:43:52;100480.22;;;22.18;52.56
31121;BME280;17770;45.966;13.632;2023-05-20T09:46:18;100476.50;;;22.20;52.59
31121;BME280;17770;45.966;13.632;2023-05-20T09:48:44;100479.88;;;22.22;52.64
31121;BME280;17770;45.966;13.632;2023-05-20T09:51:11;100480.59;;;22.24;52.63
31121;BME280;17770;45.966;13.632;2023-05-20T09:53:37;100481.41;;;22.25;52.63
31121;BME280;17770;45.966;13.632;2023-05-20T09:56:03;100480.34;;;22.27;52.52
31121;BME280;17770;45.966;13.632;2023-05-20T09:58:29;100480.34;;;22.27;52.40
31121;BME280;17770;45.966;13.632;2023-05-20T10:00:56;100488.97;;;22.29;52.72
31121;BME280;17770;45.966;13.632;2023-05-20T10:03:22;100476.63;;;22.30;52.38
31121;BME280;17770;45.966;13.632;2023-05-20T10:16:22;100477.63;;;22.40;52.68
31121;BME280;17770;45.966;13.632;2023-05-20T10:21:19;100483.38;;;22.45;52.86
31121;BME280;17770;45.966;13.632;2023-05-20T10:23:49;100477.16;;;22.46;52.89
31121;BME280;17770;45.966;13.632;2023-05-20T10:26:16;100477.88;;;22.48;53.24
31121;BME280;17770;45.966;13.632;2023-05-20T10:28:42;100478.72;;;22.48;53.76
31121;BME280;17770;45.966;13.632;2023-05-20T10:31:15;100470.72;;;22.50;53.28
31121;BME280;17770;45.966;13.632;2023-05-20T10:33:44;100486.28;;;22.53;53.46
31121;BME280;17770;45.966;13.632;2023-05-20T10:36:26;100473.13;;;22.53;53.78
31121;BME280;17770;45.966;13.632;2023-05-20T10:38:53;100468.59;;;22.55;53.05
31121;BME280;17770;45.966;13.632;2023-05-20T10:41:20;100471.09;;;22.56;53.04
31121;BME280;17770;45.966;13.632;2023-05-20T10:43:57;100470.16;;;22.57;53.37
31121;BME280;17770;45.966;13.632;2023-05-20T10:46:23;100476.13;;;22.59;53.37
31121;BME280;17770;45.966;13.632;2023-05-20T10:48:49;100472.56;;;22.60;53.10
31121;BME280;17770;45.966;13.632;2023-05-20T10:51:15;100475.91;;;22.62;52.85
31121;BME280;17770;45.966;13.632;2023-05-20T10:53:44;100472.31;;;22.63;52.76
31121;BME280;17770;45.966;13.632;2023-05-20T10:56:17;100473.16;;;22.64;52.74
31121;BME280;17770;45.966;13.632;2023-05-20T10:58:46;100472.19;;;22.65;52.86
31121;BME280;17770;45.966;13.632;2023-05-20T11:01:12;100468.50;;;22.67;53.14
31121;BME280;17770;45.966;13.632;2023-05-20T11:03:42;100470.16;;;22.68;52.93
31121;BME280;17770;45.966;13.632;2023-05-20T11:06:15;100466.47;;;22.71;53.29
31121;BME280;17770;45.966;13.632;2023-05-20T11:08:41;100468.13;;;22.72;53.25
31121;BME280;17770;45.966;13.632;2023-05-20T11:11:07;100468.00;;;22.73;53.29
31121;BME280;17770;45.966;13.632;2023-05-20T11:13:35;100474.81;;;22.76;53.41
31121;BME280;17770;45.966;13.632;2023-05-20T11:16:01;100466.84;;;22.77;53.29
31121;BME280;17770;45.966;13.632;2023-05-20T11:18:27;100461.44;;;22.79;53.13
31121;BME280;17770;45.966;13.632;2023-05-20T11:20:56;100466.59;;;22.80;53.26
31121;BME280;17770;45.966;13.632;2023-05-20T11:23:22;100468.13;;;22.83;53.43
31121;BME280;17770;45.966;13.632;2023-05-20T11:25:52;100460.09;;;22.84;53.73
31121;BME280;17770;45.966;13.632;2023-05-20T11:28:19;100461.56;;;22.88;54.09
31121;BME280;17770;45.966;13.632;2023-05-20T11:30:46;100461.56;;;22.88;54.09
31121;BME280;17770;45.966;13.632;2023-05-20T11:33:12;100454.25;;;22.92;54.48
31121;BME280;17770;45.966;13.632;2023-05-20T11:35:48;100455.81;;;22.94;54.42
31121;BME280;17770;45.966;13.632;2023-05-20T11:38:15;100450.41;;;22.96;54.28
31121;BME280;17770;45.966;13.632;2023-05-20T11:40:54;100444.22;;;22.97;53.80
31121;BME280;17770;45.966;13.632;2023-05-20T11:43:20;100447.56;;;22.99;53.91
31121;BME280;17770;45.966;13.632;2023-05-20T11:45:47;100448.25;;;23.01;53.86
31121;BME280;17770;45.966;13.632;2023-05-20T11:48:17;100447.31;;;23.02;53.80
31121;BME280;17770;45.966;13.632;2023-05-20T11:50:44;100448.97;;;23.03;53.88
31121;BME280;17770;45.966;13.632;2023-05-20T11:53:17;100448.72;;;23.06;53.78
31121;BME280;17770;45.966;13.632;2023-05-20T11:55:44;100454.84;;;23.06;53.99
31121;BME280;17770;45.966;13.632;2023-05-20T11:58:23;100442.41;;;23.08;54.07
31121;BME280;17770;45.966;13.632;2023-05-20T12:00:49;100439.53;;;23.11;53.96
31121;BME280;17770;45.966;13.632;2023-05-20T12:03:15;100435.91;;;23.12;54.11
31121;BME280;17770;45.966;13.632;2023-05-20T12:05:41;100444.41;;;23.16;53.94
31121;BME280;17770;45.966;13.632;2023-05-20T12:08:07;100431.13;;;23.17;54.01
31121;BME280;17770;45.966;13.632;2023-05-20T12:10:34;100430.88;;;23.20;54.34
31121;BME280;17770;45.966;13.632;2023-05-20T12:13:01;100415.66;;;23.24;54.08
31121;BME280;17770;45.966;13.632;2023-05-20T12:15:28;100424.28;;;23.26;54.41
31121;BME280;17770;45.966;13.632;2023-05-20T12:17:54;100419.91;;;23.27;54.29
31121;BME280;17770;45.966;13.632;2023-05-20T12:20:21;100404.81;;;23.29;54.08
31121;BME280;17770;45.966;13.632;2023-05-20T12:22:47;100411.63;;;23.31;53.99
31121;BME280;17770;45.966;13.632;2023-05-20T12:25:14;100407.06;;;23.33;54.15
31121;BME280;17770;45.966;13.632;2023-05-20T12:27:41;100415.56;;;23.37;53.82
31121;BME280;17770;45.966;13.632;2023-05-20T12:30:07;100400.50;;;23.39;53.99
31121;BME280;17770;45.966;13.632;2023-05-20T12:32:35;100403.81;;;23.41;53.82
31121;BME280;17770;45.966;13.632;2023-05-20T12:35:01;100401.75;;;23.44;54.43
31121;BME280;17770;45.966;13.632;2023-05-20T12:37:27;100402.47;;;23.46;54.14
31121;BME280;17770;45.966;13.632;2023-05-20T12:39:53;100407.63;;;23.48;54.50
31121;BME280;17770;45.966;13.632;2023-05-20T12:42:18;100398.66;;;23.50;54.42
31121;BME280;17770;45.966;13.632;2023-05-20T12:44:44;100399.34;;;23.52;54.35
31121;BME280;17770;45.966;13.632;2023-05-20T12:47:10;100408.06;;;23.53;54.41
31121;BME280;17770;45.966;13.632;2023-05-20T12:49:36;100403.66;;;23.53;54.28
31121;BME280;17770;45.966;13.632;2023-05-20T12:52:02;100398.97;;;23.57;53.95